sensor_id;sensor_type;location;lat;lon;timestamp;pressure;altitude;pressure_sealevel;temperature;humidity
32251;BME280;41295;48.518;9.206;2023-06-22T00:00:22;97230.63;;;24.29;64.59
32251;BME280;41295;48.518;9.206;2023-06-22T00:02:25;97235.94;;;24.29;64.55
32251;BME280;41295;48.518;9.206;2023-06-22T00:04:28;97228.09;;;24.27;64.32
32251;BME280;41295;48.518;9.206;2023-06-22T00:08:51;97226.44;;;24.26;64.48
32251;BME280;41295;48.518;9.206;2023-06-22T00:10:54;97223.94;;;24.24;64.46
32251;BME280;41295;48.518;9.206;2023-06-22T00:13:14;97228.56;;;24.22;64.64
32251;BME280;41295;48.518;9.206;2023-06-22T00:15:19;97239.50;;;24.19;64.33
32251;BME280;41295;48.518;9.206;2023-06-22T00:17:22;97240.47;;;24.18;64.62
32251;BME280;41295;48.518;9.206;2023-06-22T00:19:25;97235.41;;;24.15;64.87
32251;BME280;41295;48.518;9.206;2023-06-22T00:21:28;97241.72;;;24.14;64.89
32251;BME280;41295;48.518;9.206;2023-06-22T00:23:44;97240.34;;;24.10;65.23
32251;BME280;41295;48.518;9.206;2023-06-22T00:25:50;97237.69;;;24.10;65.24
32251;BME280;41295;48.518;9.206;2023-06-22T00:27:52;97234.16;;;24.09;64.99
32251;BME280;41295;48.518;9.206;2023-06-22T00:29:55;97235.16;;;24.08;64.77
32251;BME280;41295;48.518;9.206;2023-06-22T00:31:58;97235.16;;;24.08;64.82
32251;BME280;41295;48.518;9.206;2023-06-22T00:34:01;97234.31;;;24.08;65.00
32251;BME280;41295;48.518;9.206;2023-06-22T00:36:05;97224.78;;;24.05;65.41
32251;BME280;41295;48.518;9.206;2023-06-22T00:38:09;97226.63;;;24.05;65.38
32251;BME280;41295;48.518;9.206;2023-06-22T00:40:12;97224.78;;;24.05;65.00
32251;BME280;41295;48.518;9.206;2023-06-22T00:42:17;97216.94;;;24.03;64.73
32251;BME280;41295;48.518;9.206;2023-06-22T00:44:20;97209.25;;;24.00;64.55
32251;BME280;41295;48.518;9.206;2023-06-22T00:46:24;97199.03;;;23.96;64.83
32251;BME280;41295;48.518;9.206;2023-06-22T00:48:30;97201.16;;;23.92;65.44
32251;BME280;41295;48.518;9.206;2023-06-22T00:50:33;97207.44;;;23.91;64.81
32251;BME280;41295;48.518;9.206;2023-06-22T00:52:37;97211.97;;;23.90;65.01
32251;BME280;41295;48.518;9.206;2023-06-22T00:54:44;97211.97;;;23.90;64.66
32251;BME280;41295;48.518;9.206;2023-06-22T00:56:48;97217.53;;;23.87;64.86
32251;BME280;41295;48.518;9.206;2023-06-22T00:58:54;97219.94;;;23.81;65.71
32251;BME280;41295;48.518;9.206;2023-06-22T01:00:59;97232.00;;;23.75;66.09
32251;BME280;41295;48.518;9.206;2023-06-22T01:03:03;97229.63;;;23.72;66.60
32251;BME280;41295;48.518;9.206;2023-06-22T01:05:11;97228.78;;;23.71;66.02
32251;BME280;41295;48.518;9.206;2023-06-22T01:07:20;97223.19;;;23.74;66.16
32251;BME280;41295;48.518;9.206;2023-06-22T01:09:39;97225.00;;;23.74;66.12
32251;BME280;41295;48.518;9.206;2023-06-22T01:11:52;97234.81;;;23.73;65.91
32251;BME280;41295;48.518;9.206;2023-06-22T01:16:12;97240.56;;;23.69;66.43
32251;BME280;41295;48.518;9.206;2023-06-22T01:18:18;97239.72;;;23.68;66.13
32251;BME280;41295;48.518;9.206;2023-06-22T01:20:52;97247.84;;;23.66;66.09
32251;BME280;41295;48.518;9.206;2023-06-22T01:23:06;97246.44;;;23.62;66.08
32251;BME280;41295;48.518;9.206;2023-06-22T01:25:15;97249.41;;;23.59;65.77
32251;BME280;41295;48.518;9.206;2023-06-22T01:29:39;97236.22;;;23.58;65.81
32251;BME280;41295;48.518;9.206;2023-06-22T01:31:54;97235.53;;;23.55;65.88
32251;BME280;41295;48.518;9.206;2023-06-22T01:34:02;97235.81;;;23.52;65.89
32251;BME280;41295;48.518;9.206;2023-06-22T01:36:07;97243.09;;;23.50;65.22
32251;BME280;41295;48.518;9.206;2023-06-22T01:38:11;97248.84;;;23.46;65.37
32251;BME280;41295;48.518;9.206;2023-06-22T01:40:15;97241.97;;;23.43;65.41
32251;BME280;41295;48.518;9.206;2023-06-22T01:44:53;97247.44;;;23.41;66.12
32251;BME280;41295;48.518;9.206;2023-06-22T01:46:56;97239.72;;;23.38;66.08
32251;BME280;41295;48.518;9.206;2023-06-22T01:49:00;97243.50;;;23.36;66.26
32251;BME280;41295;48.518;9.206;2023-06-22T01:51:05;97241.81;;;23.35;66.21
32251;BME280;41295;48.518;9.206;2023-06-22T01:53:08;97247.44;;;23.31;66.42
32251;BME280;41295;48.518;9.206;2023-06-22T01:55:11;97242.50;;;23.27;66.25
32251;BME280;41295;48.518;9.206;2023-06-22T01:59:55;97233.16;;;23.23;66.67
32251;BME280;41295;48.518;9.206;2023-06-22T02:02:03;97233.41;;;23.19;66.54
32251;BME280;41295;48.518;9.206;2023-06-22T02:04:13;97229.06;;;23.18;66.69
32251;BME280;41295;48.518;9.206;2023-06-22T02:06:27;97229.22;;;23.17;66.92
32251;BME280;41295;48.518;9.206;2023-06-22T02:08:41;97230.47;;;23.13;67.36
32251;BME280;41295;48.518;9.206;2023-06-22T02:13:13;97235.94;;;23.11;67.70
32251;BME280;41295;48.518;9.206;2023-06-22T02:17:30;97240.97;;;23.14;67.50
32251;BME280;41295;48.518;9.206;2023-06-22T02:21:54;97240.41;;;23.11;68.13
32251;BME280;41295;48.518;9.206;2023-06-22T02:23:59;97225.44;;;23.10;68.15
32251;BME280;41295;48.518;9.206;2023-06-22T02:26:02;97231.59;;;23.10;67.75
32251;BME280;41295;48.518;9.206;2023-06-22T02:28:06;97236.06;;;23.10;67.69
32251;BME280;41295;48.518;9.206;2023-06-22T02:32:47;97245.00;;;23.09;67.41
32251;BME280;41295;48.518;9.206;2023-06-22T02:34:52;97233.69;;;23.06;67.43
32251;BME280;41295;48.518;9.206;2023-06-22T02:36:55;97231.03;;;23.06;67.09
32251;BME280;41295;48.518;9.206;2023-06-22T02:39:04;97233.69;;;23.06;67.02
32251;BME280;41295;48.518;9.206;2023-06-22T02:41:18;97245.28;;;23.05;67.08
32251;BME280;41295;48.518;9.206;2023-06-22T02:43:21;97240.25;;;23.02;66.98
32251;BME280;41295;48.518;9.206;2023-06-22T02:45:24;97245.84;;;22.99;67.06
32251;BME280;41295;48.518;9.206;2023-06-22T02:47:28;97242.78;;;22.94;66.85
32251;BME280;41295;48.518;9.206;2023-06-22T02:52:07;97231.72;;;22.89;66.74
32251;BME280;41295;48.518;9.206;2023-06-22T02:54:20;97223.84;;;22.87;66.61
32251;BME280;41295;48.518;9.206;2023-06-22T02:56:23;97225.81;;;22.85;66.81
32251;BME280;41295;48.518;9.206;2023-06-22T02:58:26;97223.28;;;22.83;66.50
32251;BME280;41295;48.518;9.206;2023-06-22T03:00:41;97212.78;;;22.82;66.49
32251;BME280;41295;48.518;9.206;2023-06-22T03:02:44;97212.22;;;22.78;66.71
32251;BME280;41295;48.518;9.206;2023-06-22T03:04:49;97211.66;;;22.75;66.76
32251;BME280;41295;48.518;9.206;2023-06-22T03:06:55;97204.94;;;22.70;67.06
32251;BME280;41295;48.518;9.206;2023-06-22T03:11:15;97209.13;;;22.63;68.06
32251;BME280;41295;48.518;9.206;2023-06-22T03:13:18;97209.25;;;22.62;67.64
32251;BME280;41295;48.518;9.206;2023-06-22T03:15:22;97209.47;;;22.58;67.61
32251;BME280;41295;48.518;9.206;2023-06-22T03:17:26;97204.31;;;22.57;67.47
32251;BME280;41295;48.518;9.206;2023-06-22T03:21:40;97202.50;;;22.57;67.41
32251;BME280;41295;48.518;9.206;2023-06-22T03:23:46;97203.22;;;22.59;67.61
32251;BME280;41295;48.518;9.206;2023-06-22T03:25:49;97192.88;;;22.56;68.13
32251;BME280;41295;48.518;9.206;2023-06-22T03:27:56;97192.88;;;22.56;68.31
32251;BME280;41295;48.518;9.206;2023-06-22T03:32:35;97192.44;;;22.51;68.44
32251;BME280;41295;48.518;9.206;2023-06-22T03:36:41;97193.97;;;22.54;68.44
32251;BME280;41295;48.518;9.206;2023-06-22T03:38:47;97194.81;;;22.54;68.56
32251;BME280;41295;48.518;9.206;2023-06-22T03:40:50;97186.84;;;22.54;68.41
32251;BME280;41295;48.518;9.206;2023-06-22T03:42:55;97192.88;;;22.56;68.15
32251;BME280;41295;48.518;9.206;2023-06-22T03:47:28;97201.94;;;22.54;68.13
32251;BME280;41295;48.518;9.206;2023-06-22T03:49:34;97195.09;;;22.51;67.66
32251;BME280;41295;48.518;9.206;2023-06-22T03:51:37;97190.03;;;22.48;67.65
32251;BME280;41295;48.518;9.206;2023-06-22T03:53:40;97190.03;;;22.48;67.83
32251;BME280;41295;48.518;9.206;2023-06-22T03:55:48;97192.69;;;22.48;68.22
32251;BME280;41295;48.518;9.206;2023-06-22T03:57:54;97189.78;;;22.51;67.90
32251;BME280;41295;48.518;9.206;2023-06-22T03:59:59;97179.97;;;22.52;67.67
32251;BME280;41295;48.518;9.206;2023-06-22T04:02:04;97179.84;;;22.53;67.39
32251;BME280;41295;48.518;9.206;2023-06-22T04:04:08;97181.66;;;22.53;67.63
32251;BME280;41295;48.518;9.206;2023-06-22T04:06:16;97174.81;;;22.50;67.52
32251;BME280;41295;48.518;9.206;2023-06-22T04:08:20;97185.56;;;22.49;67.45
32251;BME280;41295;48.518;9.206;2023-06-22T04:10:24;97179.41;;;22.48;67.68
32251;BME280;41295;48.518;9.206;2023-06-22T04:12:29;97177.72;;;22.47;67.46
32251;BME280;41295;48.518;9.206;2023-06-22T04:14:35;97177.72;;;22.47;67.51
32251;BME280;41295;48.518;9.206;2023-06-22T04:16:38;97184.16;;;22.44;67.75
32251;BME280;41295;48.518;9.206;2023-06-22T04:18:42;97178.97;;;22.43;67.93
32251;BME280;41295;48.518;9.206;2023-06-22T04:20:46;97181.63;;;22.43;67.68
32251;BME280;41295;48.518;9.206;2023-06-22T04:22:49;97175.34;;;22.44;67.97
32251;BME280;41295;48.518;9.206;2023-06-22T04:24:52;97171.00;;;22.43;67.84
32251;BME280;41295;48.518;9.206;2023-06-22T04:26:56;97161.22;;;22.43;68.54
32251;BME280;41295;48.518;9.206;2023-06-22T04:29:02;97169.34;;;22.42;68.96
32251;BME280;41295;48.518;9.206;2023-06-22T04:31:08;97165.84;;;22.41;69.12
32251;BME280;41295;48.518;9.206;2023-06-22T04:33:13;97159.66;;;22.41;69.37
32251;BME280;41295;48.518;9.206;2023-06-22T04:35:17;97161.38;;;22.42;69.73
32251;BME280;41295;48.518;9.206;2023-06-22T04:37:24;97160.38;;;22.43;69.87
32251;BME280;41295;48.518;9.206;2023-06-22T04:39:27;97159.41;;;22.44;69.89
32251;BME280;41295;48.518;9.206;2023-06-22T04:41:30;97156.63;;;22.45;69.77
32251;BME280;41295;48.518;9.206;2023-06-22T04:43:43;97149.47;;;22.46;69.92
32251;BME280;41295;48.518;9.206;2023-06-22T04:45:55;97151.16;;;22.47;70.13
32251;BME280;41295;48.518;9.206;2023-06-22T04:48:06;97152.69;;;22.50;70.19
32251;BME280;41295;48.518;9.206;2023-06-22T04:50:10;97140.13;;;22.52;70.10
32251;BME280;41295;48.518;9.206;2023-06-22T04:52:13;97146.28;;;22.52;70.37
32251;BME280;41295;48.518;9.206;2023-06-22T04:54:21;97142.53;;;22.55;70.64
32251;BME280;41295;48.518;9.206;2023-06-22T04:56:24;97135.53;;;22.54;70.36
32251;BME280;41295;48.518;9.206;2023-06-22T04:58:29;97137.22;;;22.55;70.36
32251;BME280;41295;48.518;9.206;2023-06-22T05:00:34;97130.22;;;22.54;70.59
32251;BME280;41295;48.518;9.206;2023-06-22T05:02:38;97134.41;;;22.56;70.68
32251;BME280;41295;48.518;9.206;2023-06-22T05:04:42;97130.78;;;22.57;70.54
32251;BME280;41295;48.518;9.206;2023-06-22T05:06:45;97129.69;;;22.60;70.40
32251;BME280;41295;48.518;9.206;2023-06-22T05:08:48;97126.03;;;22.61;70.38
32251;BME280;41295;48.518;9.206;2023-06-22T05:10:51;97127.03;;;22.60;70.35
32251;BME280;41295;48.518;9.206;2023-06-22T05:13:05;97124.47;;;22.58;70.44
32251;BME280;41295;48.518;9.206;2023-06-22T05:15:09;97126.31;;;22.58;70.30
32251;BME280;41295;48.518;9.206;2023-06-22T05:17:11;97128.81;;;22.59;70.58
32251;BME280;41295;48.518;9.206;2023-06-22T05:19:18;97119.75;;;22.62;70.42
32251;BME280;41295;48.518;9.206;2023-06-22T05:21:24;97121.31;;;22.65;70.36
32251;BME280;41295;48.518;9.206;2023-06-22T05:23:27;97116.00;;;22.65;70.15
32251;BME280;41295;48.518;9.206;2023-06-22T05:25:30;97122.16;;;22.65;70.53
32251;BME280;41295;48.518;9.206;2023-06-22T05:27:34;97125.63;;;22.66;70.72
32251;BME280;41295;48.518;9.206;2023-06-22T05:29:41;97119.34;;;22.67;70.66
32251;BME280;41295;48.518;9.206;2023-06-22T05:31:44;97127.03;;;22.70;70.85
32251;BME280;41295;48.518;9.206;2023-06-22T05:33:48;97128.59;;;22.73;70.63
32251;BME280;41295;48.518;9.206;2023-06-22T05:35:51;97117.81;;;22.74;70.44
32251;BME280;41295;48.518;9.206;2023-06-22T05:37:55;97124.09;;;22.73;70.18
32251;BME280;41295;48.518;9.206;2023-06-22T05:42:35;97123.84;;;22.76;70.02
32251;BME280;41295;48.518;9.206;2023-06-22T05:47:08;97127.75;;;22.82;70.03
32251;BME280;41295;48.518;9.206;2023-06-22T05:51:15;97125.38;;;22.89;69.76
32251;BME280;41295;48.518;9.206;2023-06-22T05:53:19;97128.06;;;22.89;69.58
32251;BME280;41295;48.518;9.206;2023-06-22T05:55:22;97120.91;;;22.89;69.41
32251;BME280;41295;48.518;9.206;2023-06-22T05:57:25;97134.88;;;22.91;69.24
32251;BME280;41295;48.518;9.206;2023-06-22T05:59:28;97131.13;;;22.94;68.71
32251;BME280;41295;48.518;9.206;2023-06-22T06:02:04;97134.47;;;22.96;68.77
32251;BME280;41295;48.518;9.206;2023-06-22T06:04:10;97131.41;;;23.01;68.75
32251;BME280;41295;48.518;9.206;2023-06-22T06:06:13;97126.94;;;23.01;68.64
32251;BME280;41295;48.518;9.206;2023-06-22T06:08:19;97127.47;;;23.05;68.75
32251;BME280;41295;48.518;9.206;2023-06-22T06:10:22;97134.31;;;23.07;68.71
32251;BME280;41295;48.518;9.206;2023-06-22T06:12:25;97129.72;;;23.10;68.76
32251;BME280;41295;48.518;9.206;2023-06-22T06:16:40;97127.59;;;23.13;68.52
32251;BME280;41295;48.518;9.206;2023-06-22T06:18:43;97123.00;;;23.15;68.08
32251;BME280;41295;48.518;9.206;2023-06-22T06:20:46;97131.66;;;23.17;68.11
32251;BME280;41295;48.518;9.206;2023-06-22T06:22:50;97127.03;;;23.19;67.96
32251;BME280;41295;48.518;9.206;2023-06-22T06:24:54;97126.63;;;23.24;67.80
32251;BME280;41295;48.518;9.206;2023-06-22T06:29:01;97137.13;;;23.26;67.44
32251;BME280;41295;48.518;9.206;2023-06-22T06:31:04;97124.94;;;23.23;67.71
32251;BME280;41295;48.518;9.206;2023-06-22T06:33:09;97115.13;;;23.24;68.03
32251;BME280;41295;48.518;9.206;2023-06-22T06:35:13;97114.84;;;23.27;67.76
32251;BME280;41295;48.518;9.206;2023-06-22T06:37:16;97109.53;;;23.27;67.62
32251;BME280;41295;48.518;9.206;2023-06-22T06:39:19;97114.16;;;23.25;66.96
32251;BME280;41295;48.518;9.206;2023-06-22T06:41:23;97115.69;;;23.27;66.94
32251;BME280;41295;48.518;9.206;2023-06-22T06:43:26;97113.59;;;23.31;66.85
32251;BME280;41295;48.518;9.206;2023-06-22T06:45:29;97120.31;;;23.35;66.83
32251;BME280;41295;48.518;9.206;2023-06-22T06:47:34;97108.69;;;23.36;66.66
32251;BME280;41295;48.518;9.206;2023-06-22T06:49:37;97104.06;;;23.38;66.48
32251;BME280;41295;48.518;9.206;2023-06-22T06:51:39;97114.00;;;23.46;65.89
32251;BME280;41295;48.518;9.206;2023-06-22T06:53:43;97112.03;;;23.48;66.07
32251;BME280;41295;48.518;9.206;2023-06-22T06:56:00;97114.84;;;23.47;66.00
32251;BME280;41295;48.518;9.206;2023-06-22T06:58:05;97124.06;;;23.42;65.68
32251;BME280;41295;48.518;9.206;2023-06-22T07:00:11;97123.53;;;23.49;65.65
32251;BME280;41295;48.518;9.206;2023-06-22T07:02:15;97120.16;;;23.47;65.57
32251;BME280;41295;48.518;9.206;2023-06-22T07:04:18;97116.66;;;23.46;65.88
32251;BME280;41295;48.518;9.206;2023-06-22T07:06:21;97125.19;;;23.50;66.22
32251;BME280;41295;48.518;9.206;2023-06-22T07:17:39;97111.84;;;23.70;64.74
32251;BME280;41295;48.518;9.206;2023-06-22T07:19:50;97109.72;;;23.73;64.64
32251;BME280;41295;48.518;9.206;2023-06-22T07:21:53;97098.78;;;23.76;64.46
32251;BME280;41295;48.518;9.206;2023-06-22T07:23:56;97098.50;;;23.79;64.59
32251;BME280;41295;48.518;9.206;2023-06-22T07:25:59;97100.72;;;23.84;64.59
32251;BME280;41295;48.518;9.206;2023-06-22T07:28:04;97093.97;;;23.90;64.64
32251;BME280;41295;48.518;9.206;2023-06-22T07:30:08;97088.50;;;23.91;64.44
32251;BME280;41295;48.518;9.206;2023-06-22T07:32:12;97087.38;;;23.94;64.79
32251;BME280;41295;48.518;9.206;2023-06-22T07:34:16;97079.09;;;23.97;65.09
32251;BME280;41295;48.518;9.206;2023-06-22T07:36:19;97071.66;;;24.01;65.19
32251;BME280;41295;48.518;9.206;2023-06-22T07:38:21;97075.81;;;24.03;65.04
32251;BME280;41295;48.518;9.206;2023-06-22T07:40:24;97070.22;;;24.07;65.37
32251;BME280;41295;48.518;9.206;2023-06-22T07:42:27;97073.53;;;24.09;64.72
32251;BME280;41295;48.518;9.206;2023-06-22T07:48:57;97062.03;;;24.18;64.57
32251;BME280;41295;48.518;9.206;2023-06-22T07:51:02;97063.41;;;24.22;64.25
32251;BME280;41295;48.518;9.206;2023-06-22T07:53:05;97059.59;;;24.25;64.21
32251;BME280;41295;48.518;9.206;2023-06-22T07:57:49;97059.00;;;24.31;63.97
32251;BME280;41295;48.518;9.206;2023-06-22T07:59:56;97056.59;;;24.38;63.91
32251;BME280;41295;48.518;9.206;2023-06-22T08:07:22;97053.97;;;24.46;64.05
32251;BME280;41295;48.518;9.206;2023-06-22T08:09:27;97054.69;;;24.48;63.80
32251;BME280;41295;48.518;9.206;2023-06-22T08:13:41;97067.41;;;24.55;63.66
32251;BME280;41295;48.518;9.206;2023-06-22T08:15:44;97072.75;;;24.55;63.73
32251;BME280;41295;48.518;9.206;2023-06-22T08:17:50;97076.91;;;24.57;63.52
32251;BME280;41295;48.518;9.206;2023-06-22T08:19:54;97083.78;;;24.60;63.41
32251;BME280;41295;48.518;9.206;2023-06-22T08:21:57;97094.81;;;24.65;63.08
32251;BME280;41295;48.518;9.206;2023-06-22T08:26:15;97110.94;;;24.82;63.08
32251;BME280;41295;48.518;9.206;2023-06-22T08:28:18;97116.00;;;24.85;62.73
32251;BME280;41295;48.518;9.206;2023-06-22T08:30:23;97113.31;;;24.85;62.53
32251;BME280;41295;48.518;9.206;2023-06-22T08:34:37;97123.53;;;25.08;62.06
32251;BME280;41295;48.518;9.206;2023-06-22T08:36:43;97134.53;;;25.05;61.94
32251;BME280;41295;48.518;9.206;2023-06-22T08:38:50;97144.34;;;25.04;61.77
32251;BME280;41295;48.518;9.206;2023-06-22T08:40:53;97140.25;;;25.10;61.52
32251;BME280;41295;48.518;9.206;2023-06-22T08:42:58;97148.94;;;25.12;61.97
32251;BME280;41295;48.518;9.206;2023-06-22T08:45:00;97149.31;;;25.17;61.31
32251;BME280;41295;48.518;9.206;2023-06-22T08:47:04;97149.16;;;25.19;60.96
32251;BME280;41295;48.518;9.206;2023-06-22T08:49:07;97148.66;;;25.23;60.69
32251;BME280;41295;48.518;9.206;2023-06-22T08:51:11;97137.03;;;25.25;61.21
32251;BME280;41295;48.518;9.206;2023-06-22T08:55:52;97117.84;;;25.48;60.35
32251;BME280;41295;48.518;9.206;2023-06-22T08:57:55;97108.63;;;25.42;60.92
32251;BME280;41295;48.518;9.206;2023-06-22T08:59:59;97114.13;;;25.40;60.80
32251;BME280;41295;48.518;9.206;2023-06-22T09:02:02;97114.13;;;25.40;61.10
32251;BME280;41295;48.518;9.206;2023-06-22T09:04:05;97113.13;;;25.41;61.33
32251;BME280;41295;48.518;9.206;2023-06-22T09:06:11;97111.44;;;25.40;61.14
32251;BME280;41295;48.518;9.206;2023-06-22T09:10:38;97110.66;;;25.48;61.71
32251;BME280;41295;48.518;9.206;2023-06-22T09:12:41;97120.50;;;25.48;61.37
32251;BME280;41295;48.518;9.206;2023-06-22T09:14:44;97123.84;;;25.50;61.29
32251;BME280;41295;48.518;9.206;2023-06-22T09:16:48;97124.84;;;25.49;61.97
32251;BME280;41295;48.518;9.206;2023-06-22T09:18:51;97128.19;;;25.51;62.37
32251;BME280;41295;48.518;9.206;2023-06-22T09:21:07;97114.44;;;25.64;61.26
32251;BME280;41295;48.518;9.206;2023-06-22T09:23:20;97104.22;;;25.59;61.63
32251;BME280;41295;48.518;9.206;2023-06-22T09:25:32;97095.06;;;25.62;61.35
32251;BME280;41295;48.518;9.206;2023-06-22T09:27:35;97087.06;;;25.62;61.97
32251;BME280;41295;48.518;9.206;2023-06-22T09:29:38;97089.03;;;25.59;61.24
32251;BME280;41295;48.518;9.206;2023-06-22T09:31:42;97088.88;;;25.61;61.74
32251;BME280;41295;48.518;9.206;2023-06-22T09:36:30;97083.94;;;25.66;62.07
32251;BME280;41295;48.518;9.206;2023-06-22T09:38:49;97074.09;;;25.67;62.08
32251;BME280;41295;48.518;9.206;2023-06-22T09:40:56;97074.63;;;25.70;62.44
32251;BME280;41295;48.518;9.206;2023-06-22T09:42:59;97070.00;;;25.81;61.99
32251;BME280;41295;48.518;9.206;2023-06-22T09:47:14;97064.66;;;25.81;62.04
32251;BME280;41295;48.518;9.206;2023-06-22T09:49:33;97067.69;;;25.86;62.08
32251;BME280;41295;48.518;9.206;2023-06-22T09:51:50;97056.66;;;25.89;62.09
32251;BME280;41295;48.518;9.206;2023-06-22T09:53:53;97062.53;;;25.93;61.85
32251;BME280;41295;48.518;9.206;2023-06-22T09:55:56;97061.72;;;26.01;61.46
32251;BME280;41295;48.518;9.206;2023-06-22T09:57:59;97054.72;;;26.00;60.77
32251;BME280;41295;48.518;9.206;2023-06-22T10:00:03;97043.72;;;26.03;61.04
32251;BME280;41295;48.518;9.206;2023-06-22T10:02:10;97040.25;;;26.19;60.02
32251;BME280;41295;48.518;9.206;2023-06-22T10:04:13;97034.06;;;26.18;60.01
32251;BME280;41295;48.518;9.206;2023-06-22T10:06:17;97032.41;;;26.17;60.12
32251;BME280;41295;48.518;9.206;2023-06-22T10:08:21;97033.03;;;26.19;60.50
32251;BME280;41295;48.518;9.206;2023-06-22T10:10:24;97029.22;;;26.22;60.49
32251;BME280;41295;48.518;9.206;2023-06-22T10:12:27;97033.56;;;26.23;60.66
32251;BME280;41295;48.518;9.206;2023-06-22T10:14:30;97029.06;;;26.24;61.15
32251;BME280;41295;48.518;9.206;2023-06-22T10:16:36;97024.56;;;26.24;61.15
32251;BME280;41295;48.518;9.206;2023-06-22T10:18:39;97025.06;;;26.28;61.36
32251;BME280;41295;48.518;9.206;2023-06-22T10:20:41;97021.22;;;26.30;61.55
32251;BME280;41295;48.518;9.206;2023-06-22T10:22:44;97016.25;;;26.36;61.67
32251;BME280;41295;48.518;9.206;2023-06-22T10:24:49;97022.78;;;26.41;61.76
32251;BME280;41295;48.518;9.206;2023-06-22T10:26:52;97022.94;;;26.48;61.60
32251;BME280;41295;48.518;9.206;2023-06-22T10:28:54;97017.28;;;26.51;61.38
32251;BME280;41295;48.518;9.206;2023-06-22T10:31:16;97016.94;;;26.54;60.96
32251;BME280;41295;48.518;9.206;2023-06-22T10:33:19;97011.09;;;26.59;60.57
32251;BME280;41295;48.518;9.206;2023-06-22T10:35:22;97010.91;;;26.61;60.87
32251;BME280;41295;48.518;9.206;2023-06-22T10:37:25;97002.41;;;26.65;60.00
32251;BME280;41295;48.518;9.206;2023-06-22T10:39:28;97007.06;;;26.72;59.37
32251;BME280;41295;48.518;9.206;2023-06-22T10:41:32;97005.06;;;26.90;58.50
32251;BME280;41295;48.518;9.206;2023-06-22T10:43:35;96996.38;;;26.88;58.56
32251;BME280;41295;48.518;9.206;2023-06-22T10:45:38;96998.53;;;26.93;58.83
32251;BME280;41295;48.518;9.206;2023-06-22T10:47:41;96995.06;;;26.93;58.36
32251;BME280;41295;48.518;9.206;2023-06-22T10:49:44;96992.03;;;26.96;57.89
32251;BME280;41295;48.518;9.206;2023-06-22T10:51:47;96991.00;;;26.97;57.97
32251;BME280;41295;48.518;9.206;2023-06-22T10:54:15;96985.31;;;27.00;59.00
32251;BME280;41295;48.518;9.206;2023-06-22T10:56:19;96992.69;;;27.06;59.17
32251;BME280;41295;48.518;9.206;2023-06-22T10:58:24;96991.50;;;27.09;59.93
32251;BME280;41295;48.518;9.206;2023-06-22T11:00:29;96994.84;;;27.11;59.51
32251;BME280;41295;48.518;9.206;2023-06-22T11:02:32;97003.72;;;27.11;59.35
32251;BME280;41295;48.518;9.206;2023-06-22T11:04:35;97006.53;;;27.18;59.39
32251;BME280;41295;48.518;9.206;2023-06-22T11:06:38;97002.53;;;27.22;58.41
32251;BME280;41295;48.518;9.206;2023-06-22T11:08:44;96997.50;;;27.28;58.06
32251;BME280;41295;48.518;9.206;2023-06-22T11:11:16;96998.00;;;27.31;58.06
32251;BME280;41295;48.518;9.206;2023-06-22T11:13:19;96998.31;;;27.36;58.55
32251;BME280;41295;48.518;9.206;2023-06-22T11:15:23;97000.63;;;27.40;58.67
32251;BME280;41295;48.518;9.206;2023-06-22T11:17:26;97003.81;;;27.43;59.21
32251;BME280;41295;48.518;9.206;2023-06-22T11:19:30;97004.66;;;27.44;59.08
32251;BME280;41295;48.518;9.206;2023-06-22T11:21:42;97003.81;;;27.43;58.62
32251;BME280;41295;48.518;9.206;2023-06-22T11:23:47;96997.28;;;27.46;58.74
32251;BME280;41295;48.518;9.206;2023-06-22T11:25:55;96977.53;;;27.47;58.91
32251;BME280;41295;48.518;9.206;2023-06-22T11:28:06;96965.84;;;27.48;58.63
32251;BME280;41295;48.518;9.206;2023-06-22T11:30:09;96964.81;;;27.49;57.94
32251;BME280;41295;48.518;9.206;2023-06-22T11:32:13;96960.97;;;27.52;57.71
32251;BME280;41295;48.518;9.206;2023-06-22T11:34:16;96961.97;;;27.50;58.16
32251;BME280;41295;48.518;9.206;2023-06-22T11:36:20;96969.31;;;27.48;58.95
32251;BME280;41295;48.518;9.206;2023-06-22T11:38:23;96964.31;;;27.45;59.20
32251;BME280;41295;48.518;9.206;2023-06-22T11:40:26;96976.88;;;27.45;59.12
32251;BME280;41295;48.518;9.206;2023-06-22T11:42:29;96988.78;;;27.42;58.68
32251;BME280;41295;48.518;9.206;2023-06-22T11:44:31;96988.09;;;27.40;58.25
32251;BME280;41295;48.518;9.206;2023-06-22T11:46:34;96971.50;;;27.45;58.24
32251;BME280;41295;48.518;9.206;2023-06-22T11:48:39;96977.19;;;27.50;58.20
32251;BME280;41295;48.518;9.206;2023-06-22T11:50:41;96977.66;;;27.54;57.78
32251;BME280;41295;48.518;9.206;2023-06-22T11:52:50;96981.19;;;27.54;57.70
32251;BME280;41295;48.518;9.206;2023-06-22T11:55:01;96965.59;;;27.58;58.12
32251;BME280;41295;48.518;9.206;2023-06-22T11:57:05;96959.72;;;27.62;58.24
32251;BME280;41295;48.518;9.206;2023-06-22T11:59:08;96958.00;;;27.70;58.00
32251;BME280;41295;48.518;9.206;2023-06-22T12:01:10;96960.88;;;27.77;57.76
32251;BME280;41295;48.518;9.206;2023-06-22T12:03:16;96961.81;;;27.84;57.75
32251;BME280;41295;48.518;9.206;2023-06-22T12:05:21;96952.44;;;27.88;57.56
32251;BME280;41295;48.518;9.206;2023-06-22T12:07:25;96949.22;;;27.93;57.02
32251;BME280;41295;48.518;9.206;2023-06-22T12:09:28;96966.59;;;27.97;56.71
32251;BME280;41295;48.518;9.206;2023-06-22T12:11:30;96966.25;;;28.00;56.12
32251;BME280;41295;48.518;9.206;2023-06-22T12:13:33;96972.63;;;27.99;55.88
32251;BME280;41295;48.518;9.206;2023-06-22T12:15:36;96968.44;;;27.96;56.33
32251;BME280;41295;48.518;9.206;2023-06-22T12:17:40;96968.13;;;27.91;56.10
32251;BME280;41295;48.518;9.206;2023-06-22T12:19:43;96969.53;;;27.87;55.79
32251;BME280;41295;48.518;9.206;2023-06-22T12:22:01;96975.38;;;27.82;56.18
32251;BME280;41295;48.518;9.206;2023-06-22T12:24:04;96990.78;;;27.89;56.21
32251;BME280;41295;48.518;9.206;2023-06-22T12:26:07;97000.88;;;27.78;56.72
32251;BME280;41295;48.518;9.206;2023-06-22T12:28:09;97011.09;;;27.74;56.82